Main page
METAR-TAF:

METAR-TAF

Airports :

Gwadar International Airport

Gwadar, Pakistan

latitude: 25-13-59N, longitude: 062-19-46E, elevation: 29 m

METAR: missing

Time: 18:32 (13:32 UTC)

Forecast

The report was made 3 hours and 32 minutes ago, at 10:00 UTC
Forecast valid from 15 at 12 UTC to 16 at 12 UTC
Wind 8 kt from the West
Visibility: 4000 m
haze
From UTC
Wind 3 kt from variable directions
Visibility: 3000 m
smoke
Temporary
from 16 at 00 UTC to 16 at 04 UTC
Wind kt from the North
Visibility: 2000 m
smoke
From UTC
Wind 8 kt from the West
Visibility: 5000 m
haze

TAF: OPGD 151000Z 1512/1612 28008KT 4000 HZ NSC FM 151800 VRB03KT 3000 FU NSC TEMPO 1600/1604 00000KT 2000 FU NSC FM 160600 26008KT 5000 HZ NSC

Weather observations and forecasts of more than 4000 airports (METAR and TAF reports).

The available stations are represented by yellow and red dots on the map.

Hover mouse over dot to see the name of the station.

Then click to see weather observations and forecasts.

To change the map : click on the green buttons with a black cross to zoom in, on the green button with a dash to zoom out, or on the green arrows for adjacent maps.


METAR-TAF: